DXXX/LFW METAR and TAF weather

Enter ICAO airport designator
Station Type Date Time Source
DXXX METAR 2021/05/15 22:00 UTC NOAA

DXXX 152200Z 02005KT 350V050 9999 TS SCT010 FEW020CB 26/23 Q1012 NOSIG


Station Type Date Time Source
DXXX Decoded METAR 2021/05/15 22:00 UTC NOAA

Lome, Togo (DXXX) 06-10N 001-15E 25M
May 15, 2021 - 06:00 PM EDT / 2021.05.15 2200 UTC
Wind: from the NNE (020 degrees) at 6 MPH (5 KT) (direction variable):0
Visibility: greater than 7 mile(s):0
Sky conditions: partly cloudy
Weather: thunder; Cumulonimbus clouds observed
Temperature: 78 F (26 C)
Dew Point: 73 F (23 C)
Relative Humidity: 83%
Pressure (altimeter): 29.88 in. Hg (1012 hPa)
ob: DXXX 152200Z 02005KT 350V050 9999 TS SCT010 FEW020CB 26/23 Q1012 NOSIG
cycle: 22

Station Type Date Time Source
DXXX TAF 2021/05/15 18:21 UTC NOAA

TAF TAF DXXX 151700Z 1518/1624 20010KT 9999 FEW012
TEMPO 1518/1524 TS BKN010 FEW020CB PROB40 1519/1521 10015G30KT 4000 TSRA
BECMG 1600/1602 VRB03KT BKN010
BECMG 1608/1610 20010KT SCT010

Example: see airport list